createdAt,value
2022-09-20T00:01:36.025Z,3.00
2022-09-20T00:04:07.537Z,3.50
2022-09-20T00:06:35.623Z,4.90
2022-09-20T00:09:05.007Z,6.50
2022-09-20T00:11:35.447Z,5.50
2022-09-20T00:14:08.823Z,6.60
2022-09-20T00:16:40.914Z,6.40
2022-09-20T00:19:17.971Z,6.60
2022-09-20T00:21:45.681Z,5.90
2022-09-20T00:24:13.996Z,5.20
2022-09-20T00:26:41.695Z,5.60
2022-09-20T00:29:09.330Z,6.80
2022-09-20T00:31:39.126Z,7.50
2022-09-20T00:34:25.807Z,6.10
2022-09-20T00:36:53.391Z,4.60
2022-09-20T00:39:21.092Z,5.50
2022-09-20T00:41:48.744Z,6.20
2022-09-20T00:44:53.592Z,5.40
2022-09-20T00:47:55.116Z,5.30
2022-09-20T00:50:34.865Z,4.50
2022-09-20T00:53:24.721Z,3.20
2022-09-20T00:56:03.941Z,3.20
2022-09-20T00:58:39.831Z,3.60
2022-09-20T01:01:07.817Z,3.20
2022-09-20T01:03:39.255Z,3.20
2022-09-20T01:06:13.736Z,2.60
2022-09-20T01:08:48.695Z,2.90
2022-09-20T01:11:16.877Z,3.10
2022-09-20T01:13:44.413Z,3.40
2022-09-20T01:16:15.774Z,3.50
2022-09-20T01:18:45.356Z,3.40
2022-09-20T01:21:14.275Z,3.10
2022-09-20T01:24:32.683Z,3.20
2022-09-20T01:27:26.716Z,3.70
2022-09-20T01:30:09.547Z,3.50
2022-09-20T01:32:50.673Z,4.00
2022-09-20T01:35:21.392Z,3.40
2022-09-20T01:38:32.105Z,3.20
2022-09-20T01:41:36.646Z,3.40
2022-09-20T01:44:16.325Z,3.60
2022-09-20T01:46:45.890Z,4.10
2022-09-20T01:49:57.198Z,4.10
2022-09-20T01:53:05.486Z,4.10
2022-09-20T01:55:51.606Z,4.60
2022-09-20T01:58:40.514Z,3.80
2022-09-20T02:01:45.472Z,4.30
2022-09-20T02:04:58.540Z,5.00
2022-09-20T02:07:56.796Z,5.50
2022-09-20T02:11:04.109Z,5.80
2022-09-20T02:13:48.659Z,5.80
2022-09-20T02:16:52.202Z,6.10
2022-09-20T02:20:15.791Z,6.40
2022-09-20T02:23:29.121Z,6.20
2022-09-20T02:26:15.247Z,5.60
2022-09-20T02:28:55.968Z,5.10
2022-09-20T02:31:56.329Z,5.00
2022-09-20T02:34:49.590Z,4.80
2022-09-20T02:37:54.108Z,5.00
2022-09-20T02:40:46.321Z,5.30
2022-09-20T02:43:49.876Z,5.10
2022-09-20T02:46:28.704Z,5.90
2022-09-20T02:49:36.203Z,4.50
2022-09-20T02:52:41.517Z,4.30
2022-09-20T02:55:32.356Z,4.70
2022-09-20T02:58:35.311Z,5.20
2022-09-20T03:01:24.133Z,5.90
2022-09-20T03:04:23.557Z,5.60
2022-09-20T03:07:33.091Z,6.70
2022-09-20T03:10:33.212Z,5.70
2022-09-20T03:13:27.648Z,6.60
2022-09-20T03:16:31.796Z,8.60
2022-09-20T03:19:25.910Z,7.10
2022-09-20T03:22:39.832Z,7.40
2022-09-20T03:25:59.526Z,7.40
2022-09-20T03:29:01.055Z,4.20
2022-09-20T03:31:42.676Z,4.20
2022-09-20T03:35:11.449Z,4.40
2022-09-20T03:37:51.096Z,4.70
2022-09-20T03:40:46.896Z,4.60
2022-09-20T03:43:29.342Z,3.60
2022-09-20T03:46:19.652Z,4.10
2022-09-20T03:49:11.468Z,4.80
2022-09-20T03:52:14.008Z,5.00
2022-09-20T03:55:10.193Z,6.30
2022-09-20T03:57:59.716Z,5.70
2022-09-20T04:01:17.513Z,5.10
2022-09-20T04:04:22.970Z,5.00
2022-09-20T04:07:44.326Z,4.60
2022-09-20T04:10:53.824Z,4.50
2022-09-20T04:13:47.819Z,4.80
2022-09-20T04:16:41.035Z,4.90
2022-09-20T04:19:33.304Z,4.80
2022-09-20T04:22:02.315Z,4.70
2022-09-20T04:24:33.368Z,4.30
2022-09-20T04:27:31.436Z,5.20
2022-09-20T04:30:21.400Z,4.20
2022-09-20T04:33:08.452Z,4.90
2022-09-20T04:36:20.517Z,4.80
2022-09-20T04:39:03.309Z,4.90
2022-09-20T04:42:15.328Z,4.80
2022-09-20T04:45:23.171Z,7.00
2022-09-20T04:48:25.331Z,6.30
2022-09-20T04:51:13.251Z,8.70
2022-09-20T04:54:10.237Z,8.90
2022-09-20T04:57:17.711Z,7.10
2022-09-20T05:00:09.286Z,7.80
2022-09-20T05:03:06.837Z,7.50
2022-09-20T05:05:57.340Z,8.60
2022-09-20T05:09:02.327Z,7.40
2022-09-20T05:11:54.477Z,8.60
2022-09-20T05:15:08.621Z,8.40
2022-09-20T05:18:23.692Z,6.60
2022-09-20T05:21:12.430Z,5.80
2022-09-20T05:24:08.379Z,6.90
2022-09-20T05:27:06.301Z,6.00
2022-09-20T05:29:51.543Z,5.40
2022-09-20T05:32:55.712Z,5.50
2022-09-20T05:35:38.580Z,4.80
2022-09-20T05:41:56.353Z,6.00
2022-09-20T05:44:54.669Z,6.10
2022-09-20T05:48:13.609Z,5.30
2022-09-20T05:51:03.859Z,5.50
2022-09-20T05:54:19.449Z,5.80
2022-09-20T05:57:07.568Z,7.30
2022-09-20T06:00:07.674Z,9.30
2022-09-20T06:02:56.900Z,7.70
2022-09-20T06:06:01.415Z,7.00
2022-09-20T06:09:09.032Z,6.70
2022-09-20T06:12:07.383Z,9.60
2022-09-20T06:15:00.189Z,7.00
2022-09-20T06:17:42.440Z,6.80
2022-09-20T06:20:25.692Z,5.40
2022-09-20T06:23:00.816Z,4.80
2022-09-20T06:25:42.940Z,4.40
2022-09-20T06:28:19.025Z,4.10
2022-09-20T06:30:53.135Z,4.60
2022-09-20T06:33:27.071Z,4.20
2022-09-20T06:36:24.155Z,4.80
2022-09-20T06:39:35.399Z,4.70
2022-09-20T06:42:03.177Z,5.20
2022-09-20T06:44:31.223Z,5.10
2022-09-20T06:46:59.641Z,5.10
2022-09-20T06:49:29.200Z,5.80
2022-09-20T06:51:57.536Z,5.90
2022-09-20T06:54:27.106Z,6.20
2022-09-20T06:56:55.355Z,6.30
2022-09-20T06:59:22.962Z,7.10
2022-09-20T07:01:50.593Z,7.00
2022-09-20T07:04:18.236Z,8.40
2022-09-20T07:06:45.741Z,8.10
2022-09-20T07:09:13.334Z,7.90
2022-09-20T07:11:41.016Z,7.00
2022-09-20T07:14:08.581Z,6.50
2022-09-20T07:16:37.347Z,6.00
2022-09-20T07:19:06.650Z,5.80
2022-09-20T07:21:34.209Z,6.70
2022-09-20T07:24:02.424Z,5.30
2022-09-20T07:26:31.907Z,5.40
2022-09-20T07:29:01.160Z,5.10
2022-09-20T07:31:30.078Z,4.80
2022-09-20T07:33:58.652Z,4.60
2022-09-20T07:36:26.269Z,4.10
2022-09-20T07:38:53.972Z,4.60
2022-09-20T07:41:23.019Z,4.70
2022-09-20T07:43:51.119Z,6.30
2022-09-20T07:46:23.461Z,6.80
2022-09-20T07:48:51.400Z,6.60
2022-09-20T07:51:19.000Z,5.30
2022-09-20T07:53:47.056Z,5.40
2022-09-20T07:56:48.960Z,6.90
2022-09-20T07:59:16.847Z,7.40
2022-09-20T08:01:44.510Z,5.30
2022-09-20T08:04:12.295Z,4.10
2022-09-20T08:06:43.856Z,4.20
2022-09-20T08:09:13.758Z,3.30
2022-09-20T08:11:43.610Z,2.90
2022-09-20T08:14:17.771Z,2.30
2022-09-20T08:16:48.687Z,2.40
2022-09-20T08:19:21.105Z,2.10
2022-09-20T08:21:52.576Z,2.30
2022-09-20T08:24:20.881Z,1.60
2022-09-20T08:26:48.870Z,2.00
2022-09-20T08:29:16.753Z,2.70
2022-09-20T08:31:44.588Z,2.00
2022-09-20T08:34:15.192Z,2.40
2022-09-20T08:36:51.860Z,2.00
2022-09-20T08:42:35.747Z,1.70
2022-09-20T08:45:34.795Z,2.30
2022-09-20T08:48:14.424Z,1.50
2022-09-20T08:50:42.366Z,1.60
2022-09-20T08:53:14.865Z,2.20
2022-09-20T08:55:43.515Z,2.60
2022-09-20T08:58:13.540Z,2.80
2022-09-20T09:00:47.000Z,2.60
2022-09-20T09:03:17.865Z,2.30
2022-09-20T09:05:52.982Z,1.80
2022-09-20T09:08:43.433Z,1.80
2022-09-20T09:11:17.396Z,1.80
2022-09-20T09:13:56.901Z,1.90
2022-09-20T09:16:35.277Z,1.60
2022-09-20T09:19:33.826Z,2.10
2022-09-20T09:22:05.693Z,1.70
2022-09-20T09:24:33.742Z,2.00
2022-09-20T09:27:19.714Z,1.90
2022-09-20T09:29:56.100Z,2.00
2022-09-20T09:32:32.811Z,2.30
2022-09-20T09:35:37.212Z,2.00
2022-09-20T09:38:04.830Z,1.80
2022-09-20T09:40:33.342Z,2.30
2022-09-20T09:43:04.114Z,1.80
2022-09-20T09:45:39.244Z,1.90
2022-09-20T09:48:31.295Z,2.40
2022-09-20T09:51:28.072Z,2.30
2022-09-20T09:53:56.598Z,3.10
2022-09-20T09:57:15.868Z,2.20
2022-09-20T10:00:20.817Z,2.00
2022-09-20T10:03:38.622Z,2.60
2022-09-20T10:06:30.554Z,2.00
2022-09-20T10:09:25.772Z,2.50
2022-09-20T10:12:30.402Z,2.60
2022-09-20T10:15:10.493Z,2.60
2022-09-20T10:18:20.310Z,2.60
2022-09-20T10:21:43.573Z,1.90
2022-09-20T10:24:38.325Z,2.40
2022-09-20T10:27:21.609Z,2.90
2022-09-20T10:30:17.094Z,2.20
2022-09-20T10:33:03.154Z,2.80
2022-09-20T10:36:00.120Z,2.50
2022-09-20T10:38:55.460Z,1.90
2022-09-20T10:42:12.624Z,1.30
2022-09-20T10:45:43.984Z,1.20
2022-09-20T10:48:31.752Z,1.70
2022-09-20T10:51:31.553Z,2.10
2022-09-20T10:54:24.885Z,2.20
2022-09-20T10:57:50.623Z,1.60
2022-09-20T11:00:42.247Z,1.60
2022-09-20T11:03:46.194Z,1.70
2022-09-20T11:06:31.779Z,1.90
2022-09-20T11:09:03.776Z,2.10
2022-09-20T11:11:48.024Z,3.20
2022-09-20T11:14:51.098Z,2.40
2022-09-20T11:17:36.324Z,1.90
2022-09-20T11:20:32.577Z,1.80
2022-09-20T11:23:16.059Z,1.70
2022-09-20T11:25:51.891Z,1.40
2022-09-20T11:28:49.096Z,1.60
2022-09-20T11:31:47.362Z,2.40
2022-09-20T11:34:28.187Z,1.20
2022-09-20T11:37:00.779Z,1.90
2022-09-20T11:39:47.125Z,1.50
2022-09-20T11:42:32.870Z,1.30
2022-09-20T11:45:00.466Z,2.00
2022-09-20T11:47:54.602Z,1.50
2022-09-20T11:50:38.652Z,1.80
2022-09-20T11:53:42.528Z,1.20
2022-09-20T11:56:22.497Z,1.70
2022-09-20T11:58:56.020Z,1.60
2022-09-20T12:01:33.124Z,1.70
2022-09-20T12:04:32.992Z,1.80
2022-09-20T12:07:17.773Z,2.00
2022-09-20T12:10:24.895Z,2.80
2022-09-20T12:13:25.068Z,2.00
2022-09-20T12:16:03.955Z,1.40
2022-09-20T12:18:48.183Z,1.50
2022-09-20T12:21:21.259Z,1.50
2022-09-20T12:23:57.545Z,1.40
2022-09-20T12:26:28.220Z,1.70
2022-09-20T12:29:00.176Z,1.80
2022-09-20T12:31:33.819Z,1.80
2022-09-20T12:34:13.588Z,1.80
2022-09-20T12:36:52.211Z,1.40
2022-09-20T12:39:33.255Z,1.70
2022-09-20T12:42:29.850Z,9.50
2022-09-20T12:45:15.698Z,3.20
2022-09-20T12:47:54.941Z,2.80
2022-09-20T12:50:42.229Z,2.30
2022-09-20T12:53:16.834Z,2.90
2022-09-20T12:56:07.605Z,1.70
2022-09-20T12:58:54.671Z,2.40
2022-09-20T13:01:22.679Z,2.10
2022-09-20T13:03:51.363Z,1.50
2022-09-20T13:06:19.216Z,1.90
2022-09-20T13:08:57.042Z,1.50
2022-09-20T13:11:44.870Z,1.60
2022-09-20T13:14:24.715Z,2.30
2022-09-20T13:17:04.092Z,2.20
2022-09-20T13:19:47.071Z,2.10
2022-09-20T13:22:26.344Z,1.20
2022-09-20T13:25:00.347Z,1.40
2022-09-20T13:27:34.688Z,1.60
2022-09-20T13:30:33.076Z,1.90
2022-09-20T13:33:25.222Z,1.60
2022-09-20T13:35:58.910Z,1.90
2022-09-20T13:38:31.897Z,1.50
2022-09-20T13:41:09.169Z,2.20
2022-09-20T13:43:56.636Z,2.40
2022-09-20T13:46:31.985Z,2.80
2022-09-20T13:49:24.458Z,2.40
2022-09-20T13:51:52.255Z,1.70
2022-09-20T13:54:27.533Z,1.70
2022-09-20T13:57:16.125Z,0.60
2022-09-20T13:59:46.615Z,1.50
2022-09-20T14:02:29.369Z,1.50
2022-09-20T14:05:01.826Z,1.20
2022-09-20T14:07:31.124Z,1.40
2022-09-20T14:10:00.323Z,1.80
2022-09-20T14:12:28.657Z,1.50
2022-09-20T14:14:57.839Z,1.70
2022-09-20T14:17:36.115Z,2.00
2022-09-20T14:20:05.808Z,1.30
2022-09-20T14:22:36.188Z,1.90
2022-09-20T14:25:14.360Z,1.60
2022-09-20T14:27:42.379Z,2.00
2022-09-20T14:30:31.036Z,1.90
2022-09-20T14:32:59.699Z,1.70
2022-09-20T14:35:28.064Z,1.80
2022-09-20T14:38:02.682Z,1.70
2022-09-20T14:40:44.360Z,1.60
2022-09-20T14:43:34.687Z,1.30
2022-09-20T14:46:17.539Z,2.00
2022-09-20T14:48:45.547Z,2.70
2022-09-20T14:51:16.406Z,3.90
2022-09-20T14:53:47.161Z,6.00
2022-09-20T14:56:25.428Z,6.10
2022-09-20T14:59:14.047Z,4.80
2022-09-20T15:01:46.555Z,6.00
2022-09-20T15:04:23.879Z,6.90
2022-09-20T15:06:53.170Z,5.30
2022-09-20T15:09:22.038Z,5.00
2022-09-20T15:12:04.262Z,3.50
2022-09-20T15:14:37.206Z,3.20
2022-09-20T15:17:06.348Z,2.70
2022-09-20T15:19:34.540Z,3.40
2022-09-20T15:22:02.401Z,2.30
2022-09-20T15:24:30.071Z,2.90
2022-09-20T15:26:58.009Z,2.90
2022-09-20T15:29:26.118Z,2.60
2022-09-20T15:31:53.993Z,1.90
2022-09-20T15:34:21.665Z,3.10
2022-09-20T15:36:50.771Z,3.40
2022-09-20T15:39:18.482Z,4.30
2022-09-20T15:41:46.913Z,4.50
2022-09-20T15:44:18.767Z,4.80
2022-09-20T15:46:48.300Z,5.20
2022-09-20T15:49:16.015Z,6.70
2022-09-20T15:51:43.744Z,9.00
2022-09-20T15:54:14.755Z,9.10
2022-09-20T15:56:42.761Z,8.50
2022-09-20T15:59:13.310Z,6.90
2022-09-20T16:01:44.373Z,5.10
2022-09-20T16:04:20.282Z,7.30
2022-09-20T16:06:50.274Z,9.20
2022-09-20T16:09:19.645Z,9.70
2022-09-20T16:11:48.754Z,8.80
2022-09-20T16:14:16.609Z,6.20
2022-09-20T16:16:44.399Z,7.30
2022-09-20T16:19:20.095Z,7.00
2022-09-20T16:21:53.638Z,5.20
2022-09-20T16:24:34.113Z,5.10
2022-09-20T16:27:06.092Z,5.90
2022-09-20T16:29:34.660Z,5.60
2022-09-20T16:32:05.954Z,5.60
2022-09-20T16:34:36.213Z,8.30
2022-09-20T16:37:17.066Z,9.40
2022-09-20T16:39:44.736Z,10.10
2022-09-20T16:42:13.554Z,11.30
2022-09-20T16:44:43.048Z,9.40
2022-09-20T16:47:22.134Z,10.40
2022-09-20T16:49:50.674Z,10.90
2022-09-20T16:52:18.881Z,11.80
2022-09-20T16:54:46.667Z,11.60
2022-09-20T16:57:14.496Z,11.20
2022-09-20T16:59:42.601Z,9.20
2022-09-20T17:02:13.382Z,8.90
2022-09-20T17:04:43.688Z,8.70
2022-09-20T17:07:11.440Z,9.20
2022-09-20T17:09:39.425Z,9.40
2022-09-20T17:12:09.544Z,10.00
2022-09-20T17:14:37.264Z,10.20
2022-09-20T17:17:04.957Z,11.50
2022-09-20T17:19:33.362Z,11.90
2022-09-20T17:22:01.650Z,12.40
2022-09-20T17:24:30.224Z,12.20
2022-09-20T17:26:59.248Z,12.90
2022-09-20T17:29:27.698Z,11.50
2022-09-20T17:31:59.876Z,11.70
2022-09-20T17:34:29.720Z,12.40
2022-09-20T17:36:57.361Z,11.60
2022-09-20T17:39:25.071Z,9.80
2022-09-20T17:41:52.832Z,9.80
2022-09-20T17:44:20.664Z,10.50
2022-09-20T17:46:50.323Z,12.10
2022-09-20T17:49:21.282Z,11.40
2022-09-20T17:51:52.164Z,12.80
2022-09-20T17:54:21.233Z,11.30
2022-09-20T17:56:51.674Z,11.40
2022-09-20T17:59:20.816Z,10.70
2022-09-20T18:01:51.471Z,10.40
2022-09-20T18:04:21.216Z,11.50
2022-09-20T18:06:51.991Z,11.80
2022-09-20T18:09:25.517Z,13.80
2022-09-20T18:11:55.712Z,12.70
2022-09-20T18:14:27.911Z,13.10
2022-09-20T18:17:00.994Z,13.50
2022-09-20T18:19:33.534Z,12.00
2022-09-20T18:22:03.330Z,12.50
2022-09-20T18:24:31.608Z,17.50
2022-09-20T18:27:00.963Z,19.00
2022-09-20T18:29:29.368Z,20.30
2022-09-20T18:31:59.716Z,17.90
2022-09-20T18:34:31.981Z,14.70
2022-09-20T18:37:03.608Z,12.00
2022-09-20T18:39:33.712Z,10.10
2022-09-20T18:42:03.262Z,10.50
2022-09-20T18:44:34.461Z,9.90
2022-09-20T18:47:05.751Z,9.00
2022-09-20T18:49:34.407Z,9.20
2022-09-20T18:52:03.625Z,10.80
2022-09-20T18:54:32.143Z,11.50
2022-09-20T18:57:00.187Z,12.20
2022-09-20T18:59:28.947Z,11.90
2022-09-20T19:02:30.611Z,12.50
2022-09-20T19:05:17.268Z,12.10
2022-09-20T19:08:06.309Z,13.00
2022-09-20T19:11:04.142Z,14.00
2022-09-20T19:14:00.808Z,7.40
2022-09-20T19:16:36.797Z,6.20
2022-09-20T19:19:28.196Z,5.20
2022-09-20T19:22:35.983Z,3.50
2022-09-20T19:25:29.918Z,2.40
2022-09-20T19:27:58.144Z,2.50
2022-09-20T19:30:26.255Z,2.60
2022-09-20T19:32:54.328Z,2.30
2022-09-20T19:35:35.231Z,2.90
2022-09-20T19:38:35.980Z,1.90
2022-09-20T19:41:39.822Z,2.60
2022-09-20T19:44:45.880Z,2.20
2022-09-20T19:48:00.707Z,2.30
2022-09-20T19:50:46.588Z,1.60
2022-09-20T19:53:17.599Z,1.90
2022-09-20T19:55:55.335Z,1.70
2022-09-20T19:58:23.509Z,2.10
2022-09-20T20:00:51.815Z,2.30
2022-09-20T20:03:20.080Z,2.20
2022-09-20T20:06:28.434Z,2.90
2022-09-20T20:09:25.270Z,2.80
2022-09-20T20:12:26.072Z,5.30
2022-09-20T20:15:16.148Z,5.50
2022-09-20T20:18:04.798Z,5.20
2022-09-20T20:20:44.109Z,5.50
2022-09-20T20:23:54.516Z,5.70
2022-09-20T20:26:25.547Z,6.10
2022-09-20T20:28:53.903Z,7.40
2022-09-20T20:31:22.999Z,9.80
2022-09-20T20:33:50.619Z,9.50
2022-09-20T20:36:18.205Z,8.80
2022-09-20T20:38:49.853Z,8.10
2022-09-20T20:41:21.691Z,7.60
2022-09-20T20:43:56.371Z,7.20
2022-09-20T20:46:25.086Z,7.40
2022-09-20T20:48:52.833Z,7.70
2022-09-20T20:51:22.803Z,7.50
2022-09-20T20:53:53.845Z,7.00
2022-09-20T20:56:28.595Z,7.60
2022-09-20T20:59:01.475Z,7.00
2022-09-20T21:01:45.971Z,6.00
2022-09-20T21:04:15.642Z,6.50
2022-09-20T21:06:43.334Z,6.30
2022-09-20T21:09:11.941Z,7.40
2022-09-20T21:11:44.444Z,8.10
2022-09-20T21:14:13.026Z,8.40
2022-09-20T21:16:43.484Z,8.70
2022-09-20T21:19:15.660Z,8.40
2022-09-20T21:21:47.140Z,7.80
2022-09-20T21:24:19.309Z,7.40
2022-09-20T21:26:47.639Z,8.60
2022-09-20T21:29:16.714Z,8.50
2022-09-20T21:31:46.692Z,8.40
2022-09-20T21:34:16.407Z,7.10
2022-09-20T21:36:47.212Z,8.00
2022-09-20T21:39:14.823Z,7.00
2022-09-20T21:41:42.703Z,7.80
2022-09-20T21:44:10.793Z,6.40
2022-09-20T21:46:41.461Z,7.70
2022-09-20T21:49:11.766Z,9.30
2022-09-20T21:51:42.676Z,8.60
2022-09-20T21:54:10.986Z,8.30
2022-09-20T21:56:40.477Z,8.20
2022-09-20T21:59:08.479Z,7.80
2022-09-20T22:01:40.233Z,7.60
2022-09-20T22:04:12.036Z,7.60
2022-09-20T22:06:44.795Z,7.10
2022-09-20T22:09:16.287Z,6.30
2022-09-20T22:11:48.924Z,6.90
2022-09-20T22:14:19.684Z,6.90
2022-09-20T22:16:51.174Z,6.70
2022-09-20T22:19:19.210Z,7.60
2022-09-20T22:21:49.830Z,6.50
2022-09-20T22:24:18.909Z,7.20
2022-09-20T22:26:50.035Z,6.50
2022-09-20T22:29:18.545Z,7.00
2022-09-20T22:31:50.063Z,7.00
2022-09-20T22:34:21.831Z,6.40
2022-09-20T22:36:50.348Z,6.40
2022-09-20T22:39:18.155Z,6.30
2022-09-20T22:41:48.109Z,6.30
2022-09-20T22:44:16.298Z,5.50
2022-09-20T22:46:44.410Z,5.80
2022-09-20T22:49:11.981Z,5.50
2022-09-20T22:51:39.737Z,5.60
2022-09-20T22:54:10.836Z,5.90
2022-09-20T22:56:42.427Z,5.40
2022-09-20T22:59:13.613Z,5.40
2022-09-20T23:01:45.289Z,5.30
2022-09-20T23:04:17.223Z,5.20
2022-09-20T23:06:54.553Z,5.90
2022-09-20T23:09:28.277Z,5.40
2022-09-20T23:11:56.554Z,4.80
2022-09-20T23:14:24.258Z,5.00
2022-09-20T23:16:52.935Z,4.90
2022-09-20T23:19:20.624Z,5.20
2022-09-20T23:21:48.288Z,5.40
2022-09-20T23:24:16.726Z,5.20
2022-09-20T23:26:45.101Z,4.80
2022-09-20T23:29:16.989Z,4.50
2022-09-20T23:31:47.492Z,4.60
2022-09-20T23:34:17.369Z,4.80
2022-09-20T23:36:46.564Z,4.60
2022-09-20T23:39:15.388Z,4.80
2022-09-20T23:41:47.034Z,4.40
2022-09-20T23:44:18.229Z,4.70
2022-09-20T23:46:45.866Z,3.80
2022-09-20T23:49:13.619Z,4.20
2022-09-20T23:51:41.201Z,4.80
2022-09-20T23:54:08.842Z,4.50
2022-09-20T23:56:37.079Z,4.40
2022-09-20T23:59:04.643Z,4.60
